createdAt,value
2022-09-15T00:00:40.543Z,99763.36
2022-09-15T00:04:16.498Z,99764.89
2022-09-15T00:07:53.415Z,99762.06
2022-09-15T00:11:33.534Z,99753.61
2022-09-15T00:15:08.338Z,99752.33
2022-09-15T00:18:45.420Z,99744.04
2022-09-15T00:22:24.408Z,99745.48
2022-09-15T00:25:58.688Z,99738.73
2022-09-15T00:29:36.005Z,99738.88
2022-09-15T00:33:18.250Z,99731.80
2022-09-15T00:36:47.828Z,99725.58
2022-09-15T00:44:21.616Z,99723.79
2022-09-15T00:51:18.602Z,99723.46
2022-09-15T00:55:15.782Z,99720.42
2022-09-15T00:58:48.076Z,99714.25
2022-09-15T01:02:30.965Z,99717.05
2022-09-15T01:09:24.156Z,99713.86
2022-09-15T01:13:04.229Z,99711.63
2022-09-15T01:20:31.182Z,99701.35
2022-09-15T01:24:05.516Z,99694.66
2022-09-15T01:27:41.136Z,99688.73
2022-09-15T01:32:04.868Z,99678.33
2022-09-15T01:35:23.672Z,99672.39
2022-09-15T01:39:01.093Z,99671.02
2022-09-15T01:42:20.428Z,99666.64
2022-09-15T01:45:55.390Z,99667.39
2022-09-15T01:49:45.857Z,99671.84
2022-09-15T01:53:15.608Z,99670.41
2022-09-15T01:56:46.336Z,99672.89
2022-09-15T02:00:22.455Z,99672.20
2022-09-15T02:04:07.061Z,99672.23
2022-09-15T02:07:45.543Z,99668.00
2022-09-15T02:11:25.257Z,99659.33
2022-09-15T02:15:01.226Z,99656.41
2022-09-15T02:18:58.939Z,99643.64
2022-09-15T02:22:14.703Z,99647.19
2022-09-15T02:25:56.385Z,99642.53
2022-09-15T02:29:29.363Z,99639.23
2022-09-15T02:33:09.695Z,99637.89
2022-09-15T02:36:42.829Z,99639.05
2022-09-15T02:40:16.554Z,99644.05
2022-09-15T02:43:53.408Z,99636.36
2022-09-15T02:47:32.182Z,99638.85
2022-09-15T02:51:07.100Z,99641.82
2022-09-15T02:54:43.846Z,99643.02
2022-09-15T02:58:20.586Z,99643.01
2022-09-15T03:01:57.959Z,99642.98
2022-09-15T03:05:34.199Z,99637.51
2022-09-15T03:09:20.563Z,99636.29
2022-09-15T03:12:50.496Z,99630.62
2022-09-15T03:16:25.876Z,99635.21
2022-09-15T03:20:02.437Z,99632.96
2022-09-15T03:23:38.958Z,99631.27
2022-09-15T03:27:14.980Z,99632.16
2022-09-15T03:30:52.049Z,99628.13
2022-09-15T03:34:29.288Z,99626.91
2022-09-15T03:38:05.243Z,99623.13
2022-09-15T03:41:41.922Z,99624.06
2022-09-15T03:45:19.280Z,99627.29
2022-09-15T03:48:55.547Z,99621.72
2022-09-15T03:52:33.166Z,99617.31
2022-09-15T03:56:12.399Z,99617.13
2022-09-15T03:59:45.978Z,99620.17
2022-09-15T04:03:23.348Z,99621.80
2022-09-15T04:06:59.866Z,99618.89
2022-09-15T04:10:39.424Z,99617.44
2022-09-15T04:14:13.387Z,99618.42
2022-09-15T04:17:50.261Z,99611.42
2022-09-15T04:25:04.321Z,99604.27
2022-09-15T04:28:40.999Z,99605.20
2022-09-15T04:32:17.385Z,99603.85
2022-09-15T04:36:10.728Z,99601.05
2022-09-15T04:39:31.051Z,99597.58
2022-09-15T04:43:08.443Z,99593.84
2022-09-15T04:46:44.442Z,99590.98
2022-09-15T04:50:23.175Z,99587.94
2022-09-15T04:53:59.466Z,99586.41
2022-09-15T04:57:36.027Z,99585.79
2022-09-15T05:04:58.860Z,99584.17
2022-09-15T05:08:26.984Z,99583.84
2022-09-15T05:12:09.693Z,99580.08
2022-09-15T05:15:52.443Z,99565.36
2022-09-15T05:22:55.783Z,99566.83
2022-09-15T05:26:54.569Z,99561.69
2022-09-15T05:33:48.808Z,99547.05
2022-09-15T05:37:23.489Z,99543.45
2022-09-15T05:41:08.803Z,99541.31
2022-09-15T05:44:39.132Z,99542.70
2022-09-15T05:48:15.725Z,99543.90
2022-09-15T05:51:51.789Z,99538.27
2022-09-15T05:55:28.992Z,99541.46
2022-09-15T05:59:06.575Z,99542.15
2022-09-15T06:02:43.300Z,99547.36
2022-09-15T06:06:20.095Z,99541.48
2022-09-15T06:09:55.118Z,99540.77
2022-09-15T06:13:32.687Z,99533.52
2022-09-15T06:17:08.568Z,99526.29
2022-09-15T06:20:47.862Z,99527.54
2022-09-15T06:24:26.889Z,99532.34
2022-09-15T06:27:59.263Z,99533.16
2022-09-15T06:31:36.742Z,99525.63
2022-09-15T06:35:13.651Z,99533.17
2022-09-15T06:38:50.633Z,99542.67
2022-09-15T06:42:27.550Z,99538.71
2022-09-15T06:46:13.127Z,99539.35
2022-09-15T06:49:40.419Z,99538.52
2022-09-15T06:53:16.469Z,99538.20
2022-09-15T06:56:53.402Z,99538.25
2022-09-15T07:00:31.205Z,99540.06
2022-09-15T07:04:11.398Z,99543.09
2022-09-15T07:07:43.873Z,99542.66
2022-09-15T07:11:21.471Z,99544.61
2022-09-15T07:14:57.422Z,99547.13
2022-09-15T07:18:36.776Z,99552.14
2022-09-15T07:22:12.135Z,99547.54
2022-09-15T07:25:47.757Z,99553.17
2022-09-15T07:29:24.242Z,99558.70
2022-09-15T07:33:03.134Z,99569.38
2022-09-15T07:36:47.688Z,99565.73
2022-09-15T07:40:15.747Z,99559.23
2022-09-15T07:44:13.012Z,99557.48
2022-09-15T07:47:28.977Z,99559.02
2022-09-15T07:51:07.148Z,99555.85
2022-09-15T07:54:42.159Z,99558.36
2022-09-15T07:58:20.145Z,99559.58
2022-09-15T08:01:55.914Z,99556.60
2022-09-15T08:05:38.665Z,99551.48
2022-09-15T08:09:15.221Z,99559.66
2022-09-15T08:12:46.287Z,99549.54
2022-09-15T08:16:24.726Z,99553.56
2022-09-15T08:20:02.325Z,99552.11
2022-09-15T08:23:37.224Z,99546.92
2022-09-15T08:27:14.576Z,99553.39
2022-09-15T08:30:49.818Z,99560.32
2022-09-15T08:34:28.555Z,99558.34
2022-09-15T08:38:03.668Z,99563.99
2022-09-15T08:41:47.012Z,99564.23
2022-09-15T08:45:30.657Z,99564.12
2022-09-15T09:18:30.402Z,99567.33
2022-09-15T09:21:38.967Z,99568.78
2022-09-15T09:25:26.560Z,99563.37
2022-09-15T09:28:56.315Z,99563.41
2022-09-15T09:32:32.296Z,99565.30
2022-09-15T09:36:02.968Z,99567.89
2022-09-15T09:39:33.789Z,99569.95
2022-09-15T09:43:13.476Z,99571.88
2022-09-15T09:46:49.499Z,99573.09
2022-09-15T09:50:44.079Z,99564.80
2022-09-15T09:54:16.696Z,99560.52
2022-09-15T09:57:40.727Z,99550.17
2022-09-15T10:01:18.063Z,99543.35
2022-09-15T10:05:03.293Z,99546.95
2022-09-15T10:08:27.960Z,99559.02
2022-09-15T10:12:07.359Z,99556.29
2022-09-15T10:15:44.161Z,99553.75
2022-09-15T10:19:18.989Z,99557.44
2022-09-15T10:23:24.556Z,99540.70
2022-09-15T10:26:35.746Z,99547.61
2022-09-15T10:30:17.597Z,99549.79
2022-09-15T10:33:48.564Z,99549.49
2022-09-15T10:37:52.691Z,99548.80
2022-09-15T10:41:21.130Z,99545.68
2022-09-15T10:44:47.919Z,99539.77
2022-09-15T10:48:35.139Z,99544.20
2022-09-15T10:52:21.454Z,99544.96
2022-09-15T10:55:52.981Z,99544.51
2022-09-15T10:59:18.527Z,99543.75
2022-09-15T11:03:23.088Z,99551.31
2022-09-15T11:06:44.102Z,99558.45
2022-09-15T11:10:15.510Z,99564.80
2022-09-15T11:13:56.837Z,99561.05
2022-09-15T11:17:40.825Z,99551.55
2022-09-15T11:21:13.218Z,99547.75
2022-09-15T11:24:55.828Z,99548.05
2022-09-15T11:28:33.048Z,99568.23
2022-09-15T11:31:51.984Z,99584.52
2022-09-15T11:35:42.664Z,99587.55
2022-09-15T11:39:10.842Z,99589.95
2022-09-15T11:42:46.042Z,99591.06
2022-09-15T11:46:23.817Z,99583.12
2022-09-15T11:50:12.857Z,99584.82
2022-09-15T11:53:39.595Z,99574.54
2022-09-15T11:57:04.692Z,99575.41
2022-09-15T12:00:51.814Z,99580.52
2022-09-15T12:04:26.101Z,99582.29
2022-09-15T12:08:21.098Z,99587.58
2022-09-15T12:12:02.147Z,99590.08
2022-09-15T12:15:15.396Z,99586.20
2022-09-15T12:19:07.665Z,99586.64
2022-09-15T12:22:49.155Z,99591.70
2022-09-15T12:26:22.876Z,99590.50
2022-09-15T12:29:42.153Z,99593.47
2022-09-15T12:33:43.444Z,99589.70
2022-09-15T12:36:51.526Z,99592.27
2022-09-15T12:40:36.229Z,99585.52
2022-09-15T12:44:07.503Z,99586.48
2022-09-15T12:47:42.707Z,99579.33
2022-09-15T12:51:29.424Z,99577.92
2022-09-15T12:54:57.668Z,99580.09
2022-09-15T12:58:39.689Z,99578.06
2022-09-15T13:02:46.435Z,99577.35
2022-09-15T13:06:21.107Z,99572.95
2022-09-15T13:10:19.013Z,99579.29
2022-09-15T13:13:45.608Z,99588.50
2022-09-15T13:17:11.835Z,99581.33
2022-09-15T13:20:38.830Z,99578.96
2022-09-15T13:24:44.275Z,99583.17
2022-09-15T13:28:03.650Z,99590.40
2022-09-15T13:31:38.999Z,99587.80
2022-09-15T13:35:32.839Z,99593.90
2022-09-15T13:39:04.525Z,99583.23
2022-09-15T13:42:19.128Z,99587.20
2022-09-15T13:45:53.213Z,99586.30
2022-09-15T13:49:49.274Z,99581.90
2022-09-15T13:53:42.979Z,99586.73
2022-09-15T13:57:02.139Z,99590.20
2022-09-15T14:00:55.614Z,99590.05
2022-09-15T14:04:15.440Z,99594.33
2022-09-15T14:08:18.111Z,99590.86
2022-09-15T14:11:35.644Z,99581.80
2022-09-15T14:15:06.662Z,99585.05
2022-09-15T14:18:43.837Z,99581.81
2022-09-15T14:22:26.397Z,99578.46
2022-09-15T14:25:51.308Z,99585.39
2022-09-15T14:29:28.308Z,99585.56
2022-09-15T14:33:24.147Z,99583.52
2022-09-15T14:36:41.400Z,99583.44
2022-09-15T15:23:28.227Z,99569.28
2022-09-15T15:26:39.825Z,99565.48
2022-09-15T15:30:31.040Z,99561.70
2022-09-15T15:33:52.430Z,99560.02
2022-09-15T15:37:34.356Z,99559.18
2022-09-15T15:41:08.386Z,99563.73
2022-09-15T15:44:35.145Z,99561.34
2022-09-15T15:48:12.564Z,99560.80
2022-09-15T15:51:48.971Z,99562.25
2022-09-15T15:55:37.111Z,99561.16
2022-09-15T15:59:02.347Z,99559.75
2022-09-15T16:02:39.905Z,99563.81
2022-09-15T16:06:16.211Z,99561.04
2022-09-15T16:09:54.495Z,99563.13
2022-09-15T16:13:31.295Z,99562.83
2022-09-15T16:17:06.917Z,99560.30
2022-09-15T16:20:44.277Z,99565.92
2022-09-15T16:24:20.007Z,99566.90
2022-09-15T16:27:57.517Z,99561.39
2022-09-15T16:31:35.328Z,99564.41
2022-09-15T16:35:36.792Z,99562.60
2022-09-15T16:38:47.285Z,99557.52
2022-09-15T16:42:26.125Z,99559.91
2022-09-15T16:46:02.652Z,99557.57
2022-09-15T16:49:40.850Z,99561.06
2022-09-15T16:53:20.367Z,99558.73
2022-09-15T16:56:52.456Z,99552.84
2022-09-15T17:00:30.557Z,99555.45
2022-09-15T17:04:15.587Z,99554.06
2022-09-15T17:07:42.165Z,99564.42
2022-09-15T17:11:20.390Z,99564.77
2022-09-15T17:14:57.952Z,99565.84
2022-09-15T17:18:31.777Z,99567.77
2022-09-15T17:22:09.960Z,99574.59
2022-09-15T17:25:52.728Z,99574.17
2022-09-15T17:29:22.663Z,99569.83
2022-09-15T17:33:08.786Z,99565.58
2022-09-15T17:36:38.079Z,99564.13
2022-09-15T17:40:15.703Z,99567.56
2022-09-15T17:43:49.671Z,99557.11
2022-09-15T17:47:26.279Z,99559.70
2022-09-15T17:51:03.446Z,99553.98
2022-09-15T17:54:41.697Z,99550.53
2022-09-15T17:58:18.480Z,99550.94
2022-09-15T18:02:19.498Z,99552.40
2022-09-15T18:05:37.939Z,99547.91
2022-09-15T18:09:07.614Z,99542.91
2022-09-15T18:12:48.385Z,99541.96
2022-09-15T18:16:21.975Z,99540.88
2022-09-15T18:19:57.664Z,99531.91
2022-09-15T18:23:35.288Z,99529.19
2022-09-15T18:27:31.567Z,99525.18
2022-09-15T18:30:55.942Z,99524.21
2022-09-15T18:34:28.464Z,99531.22
2022-09-15T18:38:03.455Z,99525.94
2022-09-15T18:41:39.311Z,99529.73
2022-09-15T18:45:17.357Z,99529.71
2022-09-15T18:48:54.101Z,99524.79
2022-09-15T18:52:31.892Z,99518.90
2022-09-15T18:56:13.922Z,99515.72
2022-09-15T18:59:42.372Z,99522.88
2022-09-15T19:03:19.464Z,99532.73
2022-09-15T19:06:57.738Z,99530.16
2022-09-15T19:10:32.953Z,99535.48
2022-09-15T19:14:09.264Z,99535.52
2022-09-15T19:17:47.118Z,99545.30
2022-09-15T19:21:33.004Z,99549.95
2022-09-15T19:25:00.080Z,99553.36
2022-09-15T19:28:37.097Z,99549.23
2022-09-15T19:32:15.205Z,99548.23
2022-09-15T19:35:59.955Z,99546.71
2022-09-15T19:39:27.177Z,99549.73
2022-09-15T19:43:03.551Z,99549.23
2022-09-15T19:46:40.591Z,99551.76
2022-09-15T19:50:17.683Z,99556.89
2022-09-15T19:53:56.604Z,99555.34
2022-09-15T19:57:31.058Z,99550.84
2022-09-15T20:01:07.505Z,99548.77
2022-09-15T20:08:21.922Z,99541.80
2022-09-15T20:12:16.773Z,99540.87
2022-09-15T20:15:34.784Z,99539.91
2022-09-15T20:19:11.600Z,99539.14
2022-09-15T20:22:48.167Z,99541.52
2022-09-15T20:26:25.732Z,99541.98
2022-09-15T20:30:02.167Z,99543.81
2022-09-15T20:33:40.631Z,99546.36
2022-09-15T20:37:14.974Z,99548.30
2022-09-15T20:40:55.890Z,99548.77
2022-09-15T20:44:29.063Z,99549.14
2022-09-15T20:48:05.652Z,99547.11
2022-09-15T20:51:42.947Z,99544.52
2022-09-15T20:55:19.732Z,99536.53
2022-09-15T20:59:00.334Z,99530.09
2022-09-15T21:02:34.831Z,99525.86
2022-09-15T21:06:13.011Z,99523.58
2022-09-15T21:09:47.265Z,99532.71
2022-09-15T21:13:23.375Z,99538.84
2022-09-15T21:17:00.837Z,99542.38
2022-09-15T21:20:36.738Z,99535.38
2022-09-15T21:24:14.072Z,99535.56
2022-09-15T21:27:50.565Z,99540.26
2022-09-15T21:31:32.455Z,99540.26
2022-09-15T21:35:04.606Z,99550.05
2022-09-15T21:38:44.410Z,99562.02
2022-09-15T21:42:22.751Z,99555.95
2022-09-15T21:45:58.659Z,99552.43
2022-09-15T21:49:31.450Z,99556.17
2022-09-15T21:53:07.918Z,99557.79
2022-09-15T21:56:45.429Z,99550.81
2022-09-15T22:00:21.452Z,99538.86
2022-09-15T22:04:06.943Z,99531.31
2022-09-15T22:07:35.313Z,99531.00
2022-09-15T22:11:12.143Z,99523.09
2022-09-15T22:14:50.053Z,99508.85
2022-09-15T22:18:25.459Z,99503.40
2022-09-15T22:22:02.371Z,99500.16
2022-09-15T22:25:39.092Z,99504.82
2022-09-15T22:29:16.190Z,99508.02
2022-09-15T22:32:53.189Z,99514.92
2022-09-15T22:36:31.156Z,99510.86
2022-09-15T22:40:07.159Z,99509.80
2022-09-15T22:43:45.671Z,99512.03
2022-09-15T22:47:19.753Z,99510.80
2022-09-15T22:50:56.334Z,99506.42
2022-09-15T22:54:33.631Z,99504.15
2022-09-15T22:58:11.989Z,99503.42
2022-09-15T23:01:47.434Z,99513.94
2022-09-15T23:05:23.739Z,99509.80
2022-09-15T23:09:03.633Z,99509.90
2022-09-15T23:12:37.429Z,99506.43
2022-09-15T23:16:14.276Z,99506.98
2022-09-15T23:19:51.005Z,99505.48
2022-09-15T23:23:28.334Z,99509.93
2022-09-15T23:27:04.837Z,99495.53
2022-09-15T23:30:41.515Z,99498.41
2022-09-15T23:34:18.854Z,99503.02
2022-09-15T23:37:55.085Z,99502.63
2022-09-15T23:41:31.715Z,99515.73
2022-09-15T23:45:08.756Z,99508.70
2022-09-15T23:48:45.583Z,99508.80
2022-09-15T23:52:21.957Z,99512.05
2022-09-15T23:56:01.075Z,99510.18
2022-09-15T23:59:35.423Z,99507.94
